sensor_id;sensor_type;location;lat;lon;timestamp;temperature;humidity
9219;DHT22;4644;48.858;9.184;2024-02-26T00:01:57;7.00;99.90
9219;DHT22;4644;48.858;9.184;2024-02-26T00:04:24;6.90;99.90
9219;DHT22;4644;48.858;9.184;2024-02-26T00:06:50;6.90;99.90
9219;DHT22;4644;48.858;9.184;2024-02-26T00:09:19;6.90;99.90
9219;DHT22;4644;48.858;9.184;2024-02-26T00:11:46;6.80;99.90
9219;DHT22;4644;48.858;9.184;2024-02-26T00:14:13;6.80;99.90
9219;DHT22;4644;48.858;9.184;2024-02-26T00:16:44;6.80;99.90
9219;DHT22;4644;48.858;9.184;2024-02-26T00:19:11;6.80;99.90
9219;DHT22;4644;48.858;9.184;2024-02-26T00:21:40;6.80;99.90
9219;DHT22;4644;48.858;9.184;2024-02-26T00:24:07;6.80;99.90
9219;DHT22;4644;48.858;9.184;2024-02-26T00:26:33;6.80;99.90
9219;DHT22;4644;48.858;9.184;2024-02-26T00:28:59;6.70;99.90
9219;DHT22;4644;48.858;9.184;2024-02-26T00:31:26;6.80;99.90
9219;DHT22;4644;48.858;9.184;2024-02-26T00:33:54;6.70;99.90
9219;DHT22;4644;48.858;9.184;2024-02-26T00:36:22;6.70;99.90
9219;DHT22;4644;48.858;9.184;2024-02-26T00:38:48;6.70;99.90
9219;DHT22;4644;48.858;9.184;2024-02-26T00:41:17;6.70;99.90
9219;DHT22;4644;48.858;9.184;2024-02-26T00:43:44;6.80;99.90
9219;DHT22;4644;48.858;9.184;2024-02-26T00:46:11;6.80;99.90
9219;DHT22;4644;48.858;9.184;2024-02-26T00:48:37;6.80;99.90
9219;DHT22;4644;48.858;9.184;2024-02-26T00:51:07;6.90;99.90
9219;DHT22;4644;48.858;9.184;2024-02-26T00:53:34;6.90;99.90
9219;DHT22;4644;48.858;9.184;2024-02-26T00:56:01;6.90;99.90
9219;DHT22;4644;48.858;9.184;2024-02-26T00:58:27;6.90;99.90
9219;DHT22;4644;48.858;9.184;2024-02-26T01:00:54;6.90;99.90
9219;DHT22;4644;48.858;9.184;2024-02-26T01:03:21;6.90;99.90
9219;DHT22;4644;48.858;9.184;2024-02-26T01:05:48;6.90;99.90
9219;DHT22;4644;48.858;9.184;2024-02-26T01:08:16;6.90;99.90
9219;DHT22;4644;48.858;9.184;2024-02-26T01:10:45;6.90;99.90
9219;DHT22;4644;48.858;9.184;2024-02-26T01:13:12;6.90;99.90
9219;DHT22;4644;48.858;9.184;2024-02-26T01:15:39;7.00;99.90
9219;DHT22;4644;48.858;9.184;2024-02-26T01:18:06;7.00;99.90
9219;DHT22;4644;48.858;9.184;2024-02-26T01:20:33;7.00;99.90
9219;DHT22;4644;48.858;9.184;2024-02-26T01:23:00;7.10;99.90
9219;DHT22;4644;48.858;9.184;2024-02-26T01:25:28;7.10;99.90
9219;DHT22;4644;48.858;9.184;2024-02-26T01:27:54;7.10;99.90
9219;DHT22;4644;48.858;9.184;2024-02-26T01:30:21;7.10;99.90
9219;DHT22;4644;48.858;9.184;2024-02-26T01:32:48;7.10;99.90
9219;DHT22;4644;48.858;9.184;2024-02-26T01:35:15;7.10;99.90
9219;DHT22;4644;48.858;9.184;2024-02-26T01:37:42;7.30;99.90
9219;DHT22;4644;48.858;9.184;2024-02-26T01:40:10;7.30;99.90
9219;DHT22;4644;48.858;9.184;2024-02-26T01:42:39;7.20;99.90
9219;DHT22;4644;48.858;9.184;2024-02-26T01:45:12;7.10;99.90
9219;DHT22;4644;48.858;9.184;2024-02-26T01:47:41;7.10;99.90
9219;DHT22;4644;48.858;9.184;2024-02-26T01:50:09;7.10;99.90
9219;DHT22;4644;48.858;9.184;2024-02-26T01:52:37;7.20;99.90
9219;DHT22;4644;48.858;9.184;2024-02-26T01:55:05;7.20;99.90
9219;DHT22;4644;48.858;9.184;2024-02-26T01:57:32;7.10;99.90
9219;DHT22;4644;48.858;9.184;2024-02-26T02:00:01;7.10;99.90
9219;DHT22;4644;48.858;9.184;2024-02-26T02:02:31;7.10;99.90
9219;DHT22;4644;48.858;9.184;2024-02-26T02:04:58;7.00;99.90
9219;DHT22;4644;48.858;9.184;2024-02-26T02:07:25;7.00;99.90
9219;DHT22;4644;48.858;9.184;2024-02-26T02:09:53;7.00;99.90
9219;DHT22;4644;48.858;9.184;2024-02-26T02:12:20;7.00;99.90
9219;DHT22;4644;48.858;9.184;2024-02-26T02:14:48;7.00;99.90
9219;DHT22;4644;48.858;9.184;2024-02-26T02:17:16;7.00;99.90
9219;DHT22;4644;48.858;9.184;2024-02-26T02:19:43;7.00;99.90
9219;DHT22;4644;48.858;9.184;2024-02-26T02:22:11;7.00;99.90
9219;DHT22;4644;48.858;9.184;2024-02-26T02:24:38;7.10;99.90
9219;DHT22;4644;48.858;9.184;2024-02-26T02:27:05;7.10;99.90
9219;DHT22;4644;48.858;9.184;2024-02-26T02:29:31;7.00;99.90
9219;DHT22;4644;48.858;9.184;2024-02-26T02:31:59;7.00;99.90
9219;DHT22;4644;48.858;9.184;2024-02-26T02:34:28;7.00;99.90
9219;DHT22;4644;48.858;9.184;2024-02-26T02:36:55;7.00;99.90
9219;DHT22;4644;48.858;9.184;2024-02-26T02:39:23;7.00;99.90
9219;DHT22;4644;48.858;9.184;2024-02-26T02:41:50;6.90;99.90
9219;DHT22;4644;48.858;9.184;2024-02-26T02:44:16;7.00;99.90
9219;DHT22;4644;48.858;9.184;2024-02-26T02:46:43;7.00;99.90
9219;DHT22;4644;48.858;9.184;2024-02-26T02:49:10;6.90;99.90
9219;DHT22;4644;48.858;9.184;2024-02-26T02:51:37;6.90;99.90
9219;DHT22;4644;48.858;9.184;2024-02-26T02:54:04;6.90;99.90
9219;DHT22;4644;48.858;9.184;2024-02-26T02:56:32;6.90;99.90
9219;DHT22;4644;48.858;9.184;2024-02-26T02:58:59;6.90;99.90
9219;DHT22;4644;48.858;9.184;2024-02-26T03:01:26;6.90;99.90
9219;DHT22;4644;48.858;9.184;2024-02-26T03:03:53;7.00;99.90
9219;DHT22;4644;48.858;9.184;2024-02-26T03:06:20;7.00;99.90
9219;DHT22;4644;48.858;9.184;2024-02-26T03:08:47;7.00;99.90
9219;DHT22;4644;48.858;9.184;2024-02-26T03:11:14;7.10;99.90
9219;DHT22;4644;48.858;9.184;2024-02-26T03:13:42;7.20;99.90
9219;DHT22;4644;48.858;9.184;2024-02-26T03:16:09;7.30;99.90
9219;DHT22;4644;48.858;9.184;2024-02-26T03:18:38;7.30;99.90
9219;DHT22;4644;48.858;9.184;2024-02-26T03:21:05;7.30;99.90
9219;DHT22;4644;48.858;9.184;2024-02-26T03:23:32;7.30;99.90
9219;DHT22;4644;48.858;9.184;2024-02-26T03:26:02;7.30;99.90
9219;DHT22;4644;48.858;9.184;2024-02-26T03:28:29;7.40;99.90
9219;DHT22;4644;48.858;9.184;2024-02-26T03:30:57;7.30;99.90
9219;DHT22;4644;48.858;9.184;2024-02-26T03:33:25;7.20;99.90
9219;DHT22;4644;48.858;9.184;2024-02-26T03:35:51;7.10;99.90
9219;DHT22;4644;48.858;9.184;2024-02-26T03:38:18;7.10;99.90
9219;DHT22;4644;48.858;9.184;2024-02-26T03:40:45;7.00;99.90
9219;DHT22;4644;48.858;9.184;2024-02-26T03:43:12;7.00;99.90
9219;DHT22;4644;48.858;9.184;2024-02-26T03:45:39;7.00;99.90
9219;DHT22;4644;48.858;9.184;2024-02-26T03:48:09;7.00;99.90
9219;DHT22;4644;48.858;9.184;2024-02-26T03:50:36;7.00;99.90
9219;DHT22;4644;48.858;9.184;2024-02-26T03:53:03;7.00;99.90
9219;DHT22;4644;48.858;9.184;2024-02-26T03:55:30;7.00;99.90
9219;DHT22;4644;48.858;9.184;2024-02-26T03:57:56;7.00;99.90
9219;DHT22;4644;48.858;9.184;2024-02-26T04:00:23;7.00;99.90
9219;DHT22;4644;48.858;9.184;2024-02-26T04:02:51;6.90;99.90
9219;DHT22;4644;48.858;9.184;2024-02-26T04:05:20;6.90;99.90
9219;DHT22;4644;48.858;9.184;2024-02-26T04:07:46;6.90;99.90
9219;DHT22;4644;48.858;9.184;2024-02-26T04:10:13;7.00;99.90
9219;DHT22;4644;48.858;9.184;2024-02-26T04:12:41;7.00;99.90
9219;DHT22;4644;48.858;9.184;2024-02-26T04:15:09;7.00;99.90
9219;DHT22;4644;48.858;9.184;2024-02-26T04:17:37;7.00;99.90
9219;DHT22;4644;48.858;9.184;2024-02-26T04:20:05;6.90;99.90
9219;DHT22;4644;48.858;9.184;2024-02-26T04:22:33;6.90;99.90
9219;DHT22;4644;48.858;9.184;2024-02-26T04:25:00;7.00;99.90
9219;DHT22;4644;48.858;9.184;2024-02-26T04:27:28;7.10;99.90
9219;DHT22;4644;48.858;9.184;2024-02-26T04:29:55;7.10;99.90
9219;DHT22;4644;48.858;9.184;2024-02-26T04:32:22;7.10;99.90
9219;DHT22;4644;48.858;9.184;2024-02-26T04:34:48;7.10;99.90
9219;DHT22;4644;48.858;9.184;2024-02-26T04:37:15;7.00;99.90
9219;DHT22;4644;48.858;9.184;2024-02-26T04:39:43;7.00;99.90
9219;DHT22;4644;48.858;9.184;2024-02-26T04:42:11;6.90;99.90
9219;DHT22;4644;48.858;9.184;2024-02-26T04:44:38;6.90;99.90
9219;DHT22;4644;48.858;9.184;2024-02-26T04:47:04;6.90;99.90
9219;DHT22;4644;48.858;9.184;2024-02-26T04:49:33;6.80;99.90
9219;DHT22;4644;48.858;9.184;2024-02-26T04:52:00;6.90;99.90
9219;DHT22;4644;48.858;9.184;2024-02-26T04:54:27;6.90;99.90
9219;DHT22;4644;48.858;9.184;2024-02-26T04:56:55;6.90;99.90
9219;DHT22;4644;48.858;9.184;2024-02-26T04:59:22;6.80;99.90
9219;DHT22;4644;48.858;9.184;2024-02-26T05:01:49;6.90;99.90
9219;DHT22;4644;48.858;9.184;2024-02-26T05:04:18;6.80;99.90
9219;DHT22;4644;48.858;9.184;2024-02-26T05:06:45;6.70;99.90
9219;DHT22;4644;48.858;9.184;2024-02-26T05:09:11;6.70;99.90
9219;DHT22;4644;48.858;9.184;2024-02-26T05:11:38;6.60;99.90
9219;DHT22;4644;48.858;9.184;2024-02-26T05:14:07;6.60;99.90
9219;DHT22;4644;48.858;9.184;2024-02-26T05:16:34;6.60;99.90
9219;DHT22;4644;48.858;9.184;2024-02-26T05:19:01;6.60;99.90
9219;DHT22;4644;48.858;9.184;2024-02-26T05:21:28;6.70;99.90
9219;DHT22;4644;48.858;9.184;2024-02-26T05:23:55;6.70;99.90
9219;DHT22;4644;48.858;9.184;2024-02-26T05:26:22;6.60;99.90
9219;DHT22;4644;48.858;9.184;2024-02-26T05:28:48;6.70;99.90
9219;DHT22;4644;48.858;9.184;2024-02-26T05:31:17;6.70;99.90
9219;DHT22;4644;48.858;9.184;2024-02-26T05:33:44;6.60;99.90
9219;DHT22;4644;48.858;9.184;2024-02-26T05:36:18;6.60;99.90
9219;DHT22;4644;48.858;9.184;2024-02-26T05:38:45;6.60;99.90
9219;DHT22;4644;48.858;9.184;2024-02-26T05:41:12;6.60;99.90
9219;DHT22;4644;48.858;9.184;2024-02-26T05:43:39;6.60;99.90
9219;DHT22;4644;48.858;9.184;2024-02-26T05:46:06;6.60;99.90
9219;DHT22;4644;48.858;9.184;2024-02-26T05:48:34;6.60;99.90
9219;DHT22;4644;48.858;9.184;2024-02-26T05:51:01;6.60;99.90
9219;DHT22;4644;48.858;9.184;2024-02-26T05:53:27;6.50;99.90
9219;DHT22;4644;48.858;9.184;2024-02-26T05:55:54;6.60;99.90
9219;DHT22;4644;48.858;9.184;2024-02-26T05:58:21;6.60;99.90
9219;DHT22;4644;48.858;9.184;2024-02-26T06:00:48;6.60;99.90
9219;DHT22;4644;48.858;9.184;2024-02-26T06:03:14;6.60;99.90
9219;DHT22;4644;48.858;9.184;2024-02-26T06:05:44;6.50;99.90
9219;DHT22;4644;48.858;9.184;2024-02-26T06:08:11;6.50;99.90
9219;DHT22;4644;48.858;9.184;2024-02-26T06:10:38;6.50;99.90
9219;DHT22;4644;48.858;9.184;2024-02-26T06:13:05;6.50;99.90
9219;DHT22;4644;48.858;9.184;2024-02-26T06:15:32;6.50;99.90
9219;DHT22;4644;48.858;9.184;2024-02-26T06:17:58;6.50;99.90
9219;DHT22;4644;48.858;9.184;2024-02-26T06:20:28;6.50;99.90
9219;DHT22;4644;48.858;9.184;2024-02-26T06:22:56;6.50;99.90
9219;DHT22;4644;48.858;9.184;2024-02-26T06:25:23;6.40;99.90
9219;DHT22;4644;48.858;9.184;2024-02-26T06:27:51;6.50;99.90
9219;DHT22;4644;48.858;9.184;2024-02-26T06:30:18;6.50;99.90
9219;DHT22;4644;48.858;9.184;2024-02-26T06:32:44;6.40;99.90
9219;DHT22;4644;48.858;9.184;2024-02-26T06:35:11;6.40;99.90
9219;DHT22;4644;48.858;9.184;2024-02-26T06:37:38;6.30;99.90
9219;DHT22;4644;48.858;9.184;2024-02-26T06:40:07;6.30;99.90
9219;DHT22;4644;48.858;9.184;2024-02-26T06:42:35;6.30;99.90
9219;DHT22;4644;48.858;9.184;2024-02-26T06:45:06;6.30;99.90
9219;DHT22;4644;48.858;9.184;2024-02-26T06:47:33;6.30;99.90
9219;DHT22;4644;48.858;9.184;2024-02-26T06:49:59;6.30;99.90
9219;DHT22;4644;48.858;9.184;2024-02-26T06:52:26;6.30;99.90
9219;DHT22;4644;48.858;9.184;2024-02-26T06:54:53;6.40;99.90
9219;DHT22;4644;48.858;9.184;2024-02-26T06:57:22;6.40;99.90
9219;DHT22;4644;48.858;9.184;2024-02-26T06:59:49;6.40;99.90
9219;DHT22;4644;48.858;9.184;2024-02-26T07:02:16;6.50;99.90
9219;DHT22;4644;48.858;9.184;2024-02-26T07:04:43;6.50;99.90
9219;DHT22;4644;48.858;9.184;2024-02-26T07:07:09;6.50;99.90
9219;DHT22;4644;48.858;9.184;2024-02-26T07:09:37;6.60;99.90
9219;DHT22;4644;48.858;9.184;2024-02-26T07:12:04;6.70;99.90
9219;DHT22;4644;48.858;9.184;2024-02-26T07:14:32;6.70;99.90
9219;DHT22;4644;48.858;9.184;2024-02-26T07:16:59;6.70;99.90
9219;DHT22;4644;48.858;9.184;2024-02-26T07:19:26;6.70;99.90
9219;DHT22;4644;48.858;9.184;2024-02-26T07:21:52;6.80;99.90
9219;DHT22;4644;48.858;9.184;2024-02-26T07:24:19;6.90;99.90
9219;DHT22;4644;48.858;9.184;2024-02-26T07:26:45;6.90;99.90
9219;DHT22;4644;48.858;9.184;2024-02-26T07:29:12;6.90;99.90
9219;DHT22;4644;48.858;9.184;2024-02-26T07:31:40;6.90;99.90
9219;DHT22;4644;48.858;9.184;2024-02-26T07:34:07;7.00;99.90
9219;DHT22;4644;48.858;9.184;2024-02-26T07:36:34;7.00;99.90
9219;DHT22;4644;48.858;9.184;2024-02-26T07:39:01;7.00;99.90
9219;DHT22;4644;48.858;9.184;2024-02-26T07:41:28;7.00;99.90
9219;DHT22;4644;48.858;9.184;2024-02-26T07:43:55;7.10;99.90
9219;DHT22;4644;48.858;9.184;2024-02-26T07:46:21;7.10;99.90
9219;DHT22;4644;48.858;9.184;2024-02-26T07:48:50;7.20;99.90
9219;DHT22;4644;48.858;9.184;2024-02-26T07:51:16;7.40;99.90
9219;DHT22;4644;48.858;9.184;2024-02-26T07:53:44;7.40;99.90
9219;DHT22;4644;48.858;9.184;2024-02-26T07:56:11;7.30;99.90
9219;DHT22;4644;48.858;9.184;2024-02-26T07:58:38;7.20;99.90
9219;DHT22;4644;48.858;9.184;2024-02-26T08:01:05;7.30;99.90
9219;DHT22;4644;48.858;9.184;2024-02-26T08:03:31;7.30;99.90
9219;DHT22;4644;48.858;9.184;2024-02-26T08:05:59;7.30;99.90
9219;DHT22;4644;48.858;9.184;2024-02-26T08:08:26;7.30;99.90
9219;DHT22;4644;48.858;9.184;2024-02-26T08:10:53;7.30;99.90
9219;DHT22;4644;48.858;9.184;2024-02-26T08:13:20;7.30;99.90
9219;DHT22;4644;48.858;9.184;2024-02-26T08:15:46;7.40;99.90
9219;DHT22;4644;48.858;9.184;2024-02-26T08:18:13;7.60;99.90
9219;DHT22;4644;48.858;9.184;2024-02-26T08:20:41;7.60;99.90
9219;DHT22;4644;48.858;9.184;2024-02-26T08:23:09;7.70;99.90
9219;DHT22;4644;48.858;9.184;2024-02-26T08:25:36;7.70;99.90
9219;DHT22;4644;48.858;9.184;2024-02-26T08:28:03;7.70;99.90
9219;DHT22;4644;48.858;9.184;2024-02-26T08:30:31;7.70;99.90
9219;DHT22;4644;48.858;9.184;2024-02-26T08:32:57;7.60;99.90
9219;DHT22;4644;48.858;9.184;2024-02-26T08:35:24;7.80;99.90
9219;DHT22;4644;48.858;9.184;2024-02-26T08:37:51;7.80;99.90
9219;DHT22;4644;48.858;9.184;2024-02-26T08:40:19;7.80;99.90
9219;DHT22;4644;48.858;9.184;2024-02-26T08:42:46;7.80;99.90
9219;DHT22;4644;48.858;9.184;2024-02-26T08:45:13;7.90;99.90
9219;DHT22;4644;48.858;9.184;2024-02-26T08:47:40;8.00;99.90
9219;DHT22;4644;48.858;9.184;2024-02-26T08:50:07;8.00;99.90
9219;DHT22;4644;48.858;9.184;2024-02-26T08:52:35;8.00;99.90
9219;DHT22;4644;48.858;9.184;2024-02-26T08:55:02;8.00;99.90
9219;DHT22;4644;48.858;9.184;2024-02-26T08:57:31;8.00;99.90
9219;DHT22;4644;48.858;9.184;2024-02-26T08:59:59;8.10;99.90
9219;DHT22;4644;48.858;9.184;2024-02-26T09:02:26;8.30;99.90
9219;DHT22;4644;48.858;9.184;2024-02-26T09:04:52;8.40;99.90
9219;DHT22;4644;48.858;9.184;2024-02-26T09:07:20;8.40;99.90
9219;DHT22;4644;48.858;9.184;2024-02-26T09:09:47;8.30;99.90
9219;DHT22;4644;48.858;9.184;2024-02-26T09:12:14;8.20;99.90
9219;DHT22;4644;48.858;9.184;2024-02-26T09:14:42;8.20;99.90
9219;DHT22;4644;48.858;9.184;2024-02-26T09:17:09;8.20;99.90
9219;DHT22;4644;48.858;9.184;2024-02-26T09:19:35;8.30;99.90
9219;DHT22;4644;48.858;9.184;2024-02-26T09:22:03;8.40;99.90
9219;DHT22;4644;48.858;9.184;2024-02-26T09:24:30;8.50;99.90
9219;DHT22;4644;48.858;9.184;2024-02-26T09:26:57;8.50;99.90
9219;DHT22;4644;48.858;9.184;2024-02-26T09:29:23;8.60;99.90
9219;DHT22;4644;48.858;9.184;2024-02-26T09:31:53;8.60;99.90
9219;DHT22;4644;48.858;9.184;2024-02-26T09:34:20;8.70;99.90
9219;DHT22;4644;48.858;9.184;2024-02-26T09:36:46;8.60;99.90
9219;DHT22;4644;48.858;9.184;2024-02-26T09:39:13;8.80;99.90
9219;DHT22;4644;48.858;9.184;2024-02-26T09:41:45;8.90;99.90
9219;DHT22;4644;48.858;9.184;2024-02-26T09:44:14;8.90;99.90
9219;DHT22;4644;48.858;9.184;2024-02-26T09:46:42;8.70;99.90
9219;DHT22;4644;48.858;9.184;2024-02-26T09:49:11;8.80;99.90
9219;DHT22;4644;48.858;9.184;2024-02-26T09:51:38;8.70;99.90
9219;DHT22;4644;48.858;9.184;2024-02-26T09:54:07;8.70;99.90
9219;DHT22;4644;48.858;9.184;2024-02-26T09:56:36;8.70;99.90
9219;DHT22;4644;48.858;9.184;2024-02-26T09:59:06;8.90;99.90
9219;DHT22;4644;48.858;9.184;2024-02-26T10:01:38;9.00;99.90
9219;DHT22;4644;48.858;9.184;2024-02-26T10:04:05;9.10;99.90
9219;DHT22;4644;48.858;9.184;2024-02-26T10:06:34;9.10;99.90
9219;DHT22;4644;48.858;9.184;2024-02-26T10:09:03;9.30;99.90
9219;DHT22;4644;48.858;9.184;2024-02-26T10:11:32;9.30;99.90
9219;DHT22;4644;48.858;9.184;2024-02-26T10:13:59;9.50;99.90
9219;DHT22;4644;48.858;9.184;2024-02-26T10:16:26;9.70;99.90
9219;DHT22;4644;48.858;9.184;2024-02-26T10:18:53;9.90;99.90
9219;DHT22;4644;48.858;9.184;2024-02-26T10:21:20;10.00;99.90
9219;DHT22;4644;48.858;9.184;2024-02-26T10:23:49;10.10;99.90
9219;DHT22;4644;48.858;9.184;2024-02-26T10:26:17;10.10;99.90
9219;DHT22;4644;48.858;9.184;2024-02-26T10:28:44;10.20;99.90
9219;DHT22;4644;48.858;9.184;2024-02-26T10:31:13;10.20;99.90
9219;DHT22;4644;48.858;9.184;2024-02-26T10:33:40;10.40;99.90
9219;DHT22;4644;48.858;9.184;2024-02-26T10:36:08;10.70;99.90
9219;DHT22;4644;48.858;9.184;2024-02-26T10:38:36;10.90;99.90
9219;DHT22;4644;48.858;9.184;2024-02-26T10:41:05;11.10;99.90
9219;DHT22;4644;48.858;9.184;2024-02-26T10:43:33;11.20;99.90
9219;DHT22;4644;48.858;9.184;2024-02-26T10:46:00;11.20;99.90
9219;DHT22;4644;48.858;9.184;2024-02-26T10:48:27;11.10;99.90
9219;DHT22;4644;48.858;9.184;2024-02-26T10:50:54;11.00;99.90
9219;DHT22;4644;48.858;9.184;2024-02-26T10:53:23;10.90;99.90
9219;DHT22;4644;48.858;9.184;2024-02-26T10:55:55;11.00;99.90
9219;DHT22;4644;48.858;9.184;2024-02-26T10:58:25;11.10;99.90
9219;DHT22;4644;48.858;9.184;2024-02-26T11:00:52;11.10;99.90
9219;DHT22;4644;48.858;9.184;2024-02-26T11:03:20;11.30;99.90
9219;DHT22;4644;48.858;9.184;2024-02-26T11:05:48;11.50;99.90
9219;DHT22;4644;48.858;9.184;2024-02-26T11:08:16;11.60;99.90
9219;DHT22;4644;48.858;9.184;2024-02-26T11:10:47;11.70;99.90
9219;DHT22;4644;48.858;9.184;2024-02-26T11:13:15;11.60;99.90
9219;DHT22;4644;48.858;9.184;2024-02-26T11:15:46;11.60;99.90
9219;DHT22;4644;48.858;9.184;2024-02-26T11:18:15;11.70;99.90
9219;DHT22;4644;48.858;9.184;2024-02-26T11:20:42;11.80;99.90
9219;DHT22;4644;48.858;9.184;2024-02-26T11:23:09;11.90;99.90
9219;DHT22;4644;48.858;9.184;2024-02-26T11:25:36;12.10;99.90
9219;DHT22;4644;48.858;9.184;2024-02-26T11:28:07;12.20;99.90
9219;DHT22;4644;48.858;9.184;2024-02-26T11:30:38;12.30;99.90
9219;DHT22;4644;48.858;9.184;2024-02-26T11:33:08;12.30;99.90
9219;DHT22;4644;48.858;9.184;2024-02-26T11:35:36;12.50;99.90
9219;DHT22;4644;48.858;9.184;2024-02-26T11:38:03;12.50;99.90
9219;DHT22;4644;48.858;9.184;2024-02-26T11:40:32;12.40;99.90
9219;DHT22;4644;48.858;9.184;2024-02-26T11:42:59;12.50;99.90
9219;DHT22;4644;48.858;9.184;2024-02-26T11:45:48;12.40;99.90
9219;DHT22;4644;48.858;9.184;2024-02-26T11:48:22;12.40;99.90
9219;DHT22;4644;48.858;9.184;2024-02-26T11:50:50;12.60;99.90
9219;DHT22;4644;48.858;9.184;2024-02-26T11:53:21;12.70;99.90
9219;DHT22;4644;48.858;9.184;2024-02-26T11:55:48;12.80;99.90
9219;DHT22;4644;48.858;9.184;2024-02-26T11:58:35;13.00;99.90
9219;DHT22;4644;48.858;9.184;2024-02-26T12:01:03;13.10;99.90
9219;DHT22;4644;48.858;9.184;2024-02-26T12:03:31;13.20;99.90
9219;DHT22;4644;48.858;9.184;2024-02-26T12:05:58;13.20;99.90
9219;DHT22;4644;48.858;9.184;2024-02-26T12:08:26;12.90;98.50
9219;DHT22;4644;48.858;9.184;2024-02-26T12:10:54;12.60;99.90
9219;DHT22;4644;48.858;9.184;2024-02-26T12:13:29;12.70;99.90
9219;DHT22;4644;48.858;9.184;2024-02-26T12:15:57;12.70;99.90
9219;DHT22;4644;48.858;9.184;2024-02-26T12:18:24;12.80;99.90
9219;DHT22;4644;48.858;9.184;2024-02-26T12:20:59;12.60;99.90
9219;DHT22;4644;48.858;9.184;2024-02-26T12:23:27;12.50;99.90
9219;DHT22;4644;48.858;9.184;2024-02-26T12:25:58;12.40;99.90
9219;DHT22;4644;48.858;9.184;2024-02-26T12:28:27;12.60;99.90
9219;DHT22;4644;48.858;9.184;2024-02-26T12:30:54;12.60;99.90
9219;DHT22;4644;48.858;9.184;2024-02-26T12:33:21;12.60;99.90
9219;DHT22;4644;48.858;9.184;2024-02-26T12:35:49;12.70;99.90
9219;DHT22;4644;48.858;9.184;2024-02-26T12:38:18;12.70;99.90
9219;DHT22;4644;48.858;9.184;2024-02-26T12:40:45;12.80;99.90
9219;DHT22;4644;48.858;9.184;2024-02-26T12:43:14;12.80;99.90
9219;DHT22;4644;48.858;9.184;2024-02-26T12:45:42;13.00;99.90
9219;DHT22;4644;48.858;9.184;2024-02-26T12:48:10;13.20;99.90
9219;DHT22;4644;48.858;9.184;2024-02-26T12:50:38;13.20;99.90
9219;DHT22;4644;48.858;9.184;2024-02-26T12:53:05;13.10;99.90
9219;DHT22;4644;48.858;9.184;2024-02-26T12:55:34;13.00;99.90
9219;DHT22;4644;48.858;9.184;2024-02-26T12:58:05;13.00;99.90
9219;DHT22;4644;48.858;9.184;2024-02-26T13:00:32;13.00;99.90
9219;DHT22;4644;48.858;9.184;2024-02-26T13:03:02;13.10;99.90
9219;DHT22;4644;48.858;9.184;2024-02-26T13:05:29;13.20;99.90
9219;DHT22;4644;48.858;9.184;2024-02-26T13:07:56;13.20;99.90
9219;DHT22;4644;48.858;9.184;2024-02-26T13:10:23;13.20;99.90
9219;DHT22;4644;48.858;9.184;2024-02-26T13:12:52;13.30;99.90
9219;DHT22;4644;48.858;9.184;2024-02-26T13:15:20;13.40;99.90
9219;DHT22;4644;48.858;9.184;2024-02-26T13:17:48;13.50;99.90
9219;DHT22;4644;48.858;9.184;2024-02-26T13:20:26;13.50;99.90
9219;DHT22;4644;48.858;9.184;2024-02-26T13:23:00;13.60;99.90
9219;DHT22;4644;48.858;9.184;2024-02-26T13:25:27;13.50;99.90
9219;DHT22;4644;48.858;9.184;2024-02-26T13:28:06;13.40;99.90
9219;DHT22;4644;48.858;9.184;2024-02-26T13:30:33;13.40;99.90
9219;DHT22;4644;48.858;9.184;2024-02-26T13:33:07;13.40;99.90
9219;DHT22;4644;48.858;9.184;2024-02-26T13:35:35;13.30;99.90
9219;DHT22;4644;48.858;9.184;2024-02-26T13:38:04;13.50;99.90
9219;DHT22;4644;48.858;9.184;2024-02-26T13:40:32;13.50;99.90
9219;DHT22;4644;48.858;9.184;2024-02-26T13:42:59;13.40;99.90
9219;DHT22;4644;48.858;9.184;2024-02-26T13:45:27;13.40;99.90
9219;DHT22;4644;48.858;9.184;2024-02-26T13:47:54;13.40;99.10
9219;DHT22;4644;48.858;9.184;2024-02-26T13:50:27;13.40;99.90
9219;DHT22;4644;48.858;9.184;2024-02-26T13:52:54;13.60;98.90
9219;DHT22;4644;48.858;9.184;2024-02-26T13:55:21;13.60;99.00
9219;DHT22;4644;48.858;9.184;2024-02-26T13:57:51;13.50;98.80
9219;DHT22;4644;48.858;9.184;2024-02-26T14:00:19;13.50;98.10
9219;DHT22;4644;48.858;9.184;2024-02-26T14:02:47;13.60;98.50
9219;DHT22;4644;48.858;9.184;2024-02-26T14:05:14;13.60;97.80
9219;DHT22;4644;48.858;9.184;2024-02-26T14:07:42;13.60;98.80
9219;DHT22;4644;48.858;9.184;2024-02-26T14:10:09;13.70;98.40
9219;DHT22;4644;48.858;9.184;2024-02-26T14:12:38;13.70;97.90
9219;DHT22;4644;48.858;9.184;2024-02-26T14:15:07;13.60;97.80
9219;DHT22;4644;48.858;9.184;2024-02-26T14:17:34;13.70;98.90
9219;DHT22;4644;48.858;9.184;2024-02-26T14:20:03;13.70;98.20
9219;DHT22;4644;48.858;9.184;2024-02-26T14:22:30;13.70;97.80
9219;DHT22;4644;48.858;9.184;2024-02-26T14:24:57;13.60;97.60
9219;DHT22;4644;48.858;9.184;2024-02-26T14:27:25;13.60;98.60
9219;DHT22;4644;48.858;9.184;2024-02-26T14:29:51;13.70;97.40
9219;DHT22;4644;48.858;9.184;2024-02-26T14:32:18;13.70;97.40
9219;DHT22;4644;48.858;9.184;2024-02-26T14:34:45;13.60;97.40
9219;DHT22;4644;48.858;9.184;2024-02-26T14:37:15;13.60;98.30
9219;DHT22;4644;48.858;9.184;2024-02-26T14:39:41;13.60;97.80
9219;DHT22;4644;48.858;9.184;2024-02-26T14:42:12;13.60;98.30
9219;DHT22;4644;48.858;9.184;2024-02-26T14:44:42;13.70;97.50
9219;DHT22;4644;48.858;9.184;2024-02-26T14:47:09;13.70;96.60
9219;DHT22;4644;48.858;9.184;2024-02-26T14:49:36;13.70;96.10
9219;DHT22;4644;48.858;9.184;2024-02-26T14:52:03;13.70;96.20
9219;DHT22;4644;48.858;9.184;2024-02-26T14:54:32;13.60;96.20
9219;DHT22;4644;48.858;9.184;2024-02-26T14:57:02;13.60;97.50
9219;DHT22;4644;48.858;9.184;2024-02-26T14:59:30;13.50;97.70
9219;DHT22;4644;48.858;9.184;2024-02-26T15:01:57;13.50;97.20
9219;DHT22;4644;48.858;9.184;2024-02-26T15:04:25;13.40;96.90
9219;DHT22;4644;48.858;9.184;2024-02-26T15:06:52;13.40;97.00
9219;DHT22;4644;48.858;9.184;2024-02-26T15:09:19;13.50;97.30
9219;DHT22;4644;48.858;9.184;2024-02-26T15:11:48;13.50;97.60
9219;DHT22;4644;48.858;9.184;2024-02-26T15:14:15;13.40;98.00
9219;DHT22;4644;48.858;9.184;2024-02-26T15:16:43;13.30;97.80
9219;DHT22;4644;48.858;9.184;2024-02-26T15:19:10;13.30;98.40
9219;DHT22;4644;48.858;9.184;2024-02-26T15:21:42;13.20;98.20
9219;DHT22;4644;48.858;9.184;2024-02-26T15:24:09;13.10;98.50
9219;DHT22;4644;48.858;9.184;2024-02-26T15:26:36;13.10;99.40
9219;DHT22;4644;48.858;9.184;2024-02-26T15:29:05;13.10;99.30
9219;DHT22;4644;48.858;9.184;2024-02-26T15:31:31;13.00;99.10
9219;DHT22;4644;48.858;9.184;2024-02-26T15:33:58;13.00;99.90
9219;DHT22;4644;48.858;9.184;2024-02-26T15:36:25;13.00;99.90
9219;DHT22;4644;48.858;9.184;2024-02-26T15:38:53;12.90;99.90
9219;DHT22;4644;48.858;9.184;2024-02-26T15:41:20;12.90;98.70
9219;DHT22;4644;48.858;9.184;2024-02-26T15:43:47;12.80;99.00
9219;DHT22;4644;48.858;9.184;2024-02-26T15:46:15;12.80;99.70
9219;DHT22;4644;48.858;9.184;2024-02-26T15:48:42;12.70;99.60
9219;DHT22;4644;48.858;9.184;2024-02-26T15:51:18;12.70;99.30
9219;DHT22;4644;48.858;9.184;2024-02-26T15:53:45;12.60;99.40
9219;DHT22;4644;48.858;9.184;2024-02-26T15:56:12;12.60;99.50
9219;DHT22;4644;48.858;9.184;2024-02-26T15:58:40;12.50;99.90
9219;DHT22;4644;48.858;9.184;2024-02-26T16:01:07;12.50;99.90
9219;DHT22;4644;48.858;9.184;2024-02-26T16:03:38;12.50;99.90
9219;DHT22;4644;48.858;9.184;2024-02-26T16:06:06;12.40;99.90
9219;DHT22;4644;48.858;9.184;2024-02-26T16:08:33;12.40;99.90
9219;DHT22;4644;48.858;9.184;2024-02-26T16:11:00;12.40;99.90
9219;DHT22;4644;48.858;9.184;2024-02-26T16:13:26;12.40;99.90
9219;DHT22;4644;48.858;9.184;2024-02-26T16:15:58;12.30;99.90